Aviation Digital Data Service (ADDS)

Output produced by METARs form (0919 UTC 31 July 2015)
found at http://www.aviationweather.gov/adds/metars/
 
KDEN 310915Z 3109/0112 26009KT P6SM SCT150 BKN220 
     FM311100 33006KT P6SM FEW140 SCT220 
     FM311400 VRB05KT P6SM FEW120 SCT200 
     FM311900 14012KT P6SM SCT080 SCT120 
     FM010200 16012G20KT P6SM SCT080 BKN120 
     FM010400 20011KT P6SM FEW090 SCT120